sensor_id;sensor_type;location;lat;lon;timestamp;P1;durP1;ratioP1;P2;durP2;ratioP2
22160;SDS011;49035;48.812;11.762;2023-11-19T00:01:35;1.70;;;1.60;;
22160;SDS011;49035;48.812;11.762;2023-11-19T00:04:01;2.60;;;1.77;;
22160;SDS011;49035;48.812;11.762;2023-11-19T00:06:29;3.17;;;1.70;;
22160;SDS011;49035;48.812;11.762;2023-11-19T00:08:55;2.83;;;1.90;;
22160;SDS011;49035;48.812;11.762;2023-11-19T00:11:21;3.10;;;1.80;;
22160;SDS011;49035;48.812;11.762;2023-11-19T00:13:46;2.37;;;1.63;;
22160;SDS011;49035;48.812;11.762;2023-11-19T00:16:12;3.07;;;1.90;;
22160;SDS011;49035;48.812;11.762;2023-11-19T00:18:37;4.20;;;1.63;;
22160;SDS011;49035;48.812;11.762;2023-11-19T00:21:03;3.13;;;2.00;;
22160;SDS011;49035;48.812;11.762;2023-11-19T00:23:29;3.43;;;1.70;;
22160;SDS011;49035;48.812;11.762;2023-11-19T00:25:54;3.73;;;2.00;;
22160;SDS011;49035;48.812;11.762;2023-11-19T00:28:20;2.30;;;2.03;;
22160;SDS011;49035;48.812;11.762;2023-11-19T00:30:45;5.10;;;1.80;;
22160;SDS011;49035;48.812;11.762;2023-11-19T00:33:11;2.53;;;2.00;;
22160;SDS011;49035;48.812;11.762;2023-11-19T00:35:36;1.83;;;1.67;;
22160;SDS011;49035;48.812;11.762;2023-11-19T00:38:02;2.13;;;1.93;;
22160;SDS011;49035;48.812;11.762;2023-11-19T00:40:29;2.20;;;2.00;;
22160;SDS011;49035;48.812;11.762;2023-11-19T00:42:54;1.80;;;1.70;;
22160;SDS011;49035;48.812;11.762;2023-11-19T00:45:20;3.03;;;2.20;;
22160;SDS011;49035;48.812;11.762;2023-11-19T00:47:45;1.60;;;1.50;;
22160;SDS011;49035;48.812;11.762;2023-11-19T00:50:11;2.60;;;1.97;;
22160;SDS011;49035;48.812;11.762;2023-11-19T00:52:37;2.17;;;1.60;;
22160;SDS011;49035;48.812;11.762;2023-11-19T00:55:04;2.60;;;1.77;;
22160;SDS011;49035;48.812;11.762;2023-11-19T00:57:30;4.40;;;2.03;;
22160;SDS011;49035;48.812;11.762;2023-11-19T00:59:58;5.57;;;1.83;;
22160;SDS011;49035;48.812;11.762;2023-11-19T01:02:24;1.97;;;1.77;;
22160;SDS011;49035;48.812;11.762;2023-11-19T01:04:50;1.73;;;1.63;;
22160;SDS011;49035;48.812;11.762;2023-11-19T01:07:16;2.75;;;2.42;;
22160;SDS011;49035;48.812;11.762;2023-11-19T01:09:42;5.20;;;2.60;;
22160;SDS011;49035;48.812;11.762;2023-11-19T01:12:07;6.90;;;4.47;;
22160;SDS011;49035;48.812;11.762;2023-11-19T01:14:35;4.23;;;3.10;;
22160;SDS011;49035;48.812;11.762;2023-11-19T01:17:01;2.17;;;1.97;;
22160;SDS011;49035;48.812;11.762;2023-11-19T01:19:26;3.03;;;1.90;;
22160;SDS011;49035;48.812;11.762;2023-11-19T01:21:53;4.30;;;2.00;;
22160;SDS011;49035;48.812;11.762;2023-11-19T01:24:19;3.23;;;1.80;;
22160;SDS011;49035;48.812;11.762;2023-11-19T01:26:45;2.63;;;1.97;;
22160;SDS011;49035;48.812;11.762;2023-11-19T01:29:11;3.57;;;2.40;;
22160;SDS011;49035;48.812;11.762;2023-11-19T01:31:45;2.80;;;2.00;;
22160;SDS011;49035;48.812;11.762;2023-11-19T01:34:11;3.87;;;2.30;;
22160;SDS011;49035;48.812;11.762;2023-11-19T01:36:37;2.50;;;2.30;;
22160;SDS011;49035;48.812;11.762;2023-11-19T01:39:04;3.07;;;1.67;;
22160;SDS011;49035;48.812;11.762;2023-11-19T01:41:34;3.00;;;1.97;;
22160;SDS011;49035;48.812;11.762;2023-11-19T01:44:00;3.10;;;2.37;;
22160;SDS011;49035;48.812;11.762;2023-11-19T01:46:26;2.53;;;2.15;;
22160;SDS011;49035;48.812;11.762;2023-11-19T01:48:52;3.43;;;2.60;;
22160;SDS011;49035;48.812;11.762;2023-11-19T01:51:19;2.70;;;2.27;;
22160;SDS011;49035;48.812;11.762;2023-11-19T01:53:46;3.20;;;2.43;;
22160;SDS011;49035;48.812;11.762;2023-11-19T01:56:14;3.43;;;2.60;;
22160;SDS011;49035;48.812;11.762;2023-11-19T01:58:41;3.07;;;2.70;;
22160;SDS011;49035;48.812;11.762;2023-11-19T02:01:08;3.83;;;2.83;;
22160;SDS011;49035;48.812;11.762;2023-11-19T02:03:34;2.87;;;2.30;;
22160;SDS011;49035;48.812;11.762;2023-11-19T02:06:00;2.73;;;2.30;;
22160;SDS011;49035;48.812;11.762;2023-11-19T02:08:26;3.27;;;2.50;;
22160;SDS011;49035;48.812;11.762;2023-11-19T02:10:52;4.37;;;2.43;;
22160;SDS011;49035;48.812;11.762;2023-11-19T02:13:20;3.67;;;2.50;;
22160;SDS011;49035;48.812;11.762;2023-11-19T02:15:45;2.73;;;2.10;;
22160;SDS011;49035;48.812;11.762;2023-11-19T02:18:44;2.80;;;2.50;;
22160;SDS011;49035;48.812;11.762;2023-11-19T02:21:03;9.30;;;2.00;;
22160;SDS011;49035;48.812;11.762;2023-11-19T02:23:30;2.80;;;2.17;;
22160;SDS011;49035;48.812;11.762;2023-11-19T02:25:59;2.27;;;1.93;;
22160;SDS011;49035;48.812;11.762;2023-11-19T02:28:27;3.47;;;2.13;;
22160;SDS011;49035;48.812;11.762;2023-11-19T02:30:52;2.30;;;1.93;;
22160;SDS011;49035;48.812;11.762;2023-11-19T02:33:18;3.37;;;2.10;;
22160;SDS011;49035;48.812;11.762;2023-11-19T02:35:44;2.37;;;2.00;;
22160;SDS011;49035;48.812;11.762;2023-11-19T02:38:09;2.00;;;1.80;;
22160;SDS011;49035;48.812;11.762;2023-11-19T02:40:36;2.73;;;2.00;;
22160;SDS011;49035;48.812;11.762;2023-11-19T02:43:01;2.77;;;2.17;;
22160;SDS011;49035;48.812;11.762;2023-11-19T02:45:29;3.17;;;1.97;;
22160;SDS011;49035;48.812;11.762;2023-11-19T02:47:56;2.70;;;2.10;;
22160;SDS011;49035;48.812;11.762;2023-11-19T02:50:22;5.20;;;2.30;;
22160;SDS011;49035;48.812;11.762;2023-11-19T02:52:51;3.40;;;2.00;;
22160;SDS011;49035;48.812;11.762;2023-11-19T02:55:24;2.67;;;2.00;;
22160;SDS011;49035;48.812;11.762;2023-11-19T02:57:50;2.40;;;2.20;;
22160;SDS011;49035;48.812;11.762;2023-11-19T03:00:18;3.07;;;2.10;;
22160;SDS011;49035;48.812;11.762;2023-11-19T03:02:50;2.93;;;2.00;;
22160;SDS011;49035;48.812;11.762;2023-11-19T03:05:35;3.30;;;2.10;;
22160;SDS011;49035;48.812;11.762;2023-11-19T03:08:00;2.00;;;1.80;;
22160;SDS011;49035;48.812;11.762;2023-11-19T03:10:26;2.20;;;2.00;;
22160;SDS011;49035;48.812;11.762;2023-11-19T03:12:52;2.50;;;2.23;;
22160;SDS011;49035;48.812;11.762;2023-11-19T03:15:17;2.43;;;1.80;;
22160;SDS011;49035;48.812;11.762;2023-11-19T03:17:43;2.07;;;1.87;;
22160;SDS011;49035;48.812;11.762;2023-11-19T03:20:10;2.00;;;1.60;;
22160;SDS011;49035;48.812;11.762;2023-11-19T03:22:39;1.98;;;1.77;;
22160;SDS011;49035;48.812;11.762;2023-11-19T03:25:09;4.90;;;2.27;;
22160;SDS011;49035;48.812;11.762;2023-11-19T03:27:35;2.17;;;1.80;;
22160;SDS011;49035;48.812;11.762;2023-11-19T03:30:02;3.07;;;2.07;;
22160;SDS011;49035;48.812;11.762;2023-11-19T03:32:30;5.40;;;2.13;;
22160;SDS011;49035;48.812;11.762;2023-11-19T03:34:56;2.70;;;2.40;;
22160;SDS011;49035;48.812;11.762;2023-11-19T03:37:22;2.40;;;1.90;;
22160;SDS011;49035;48.812;11.762;2023-11-19T03:39:49;2.40;;;2.00;;
22160;SDS011;49035;48.812;11.762;2023-11-19T03:42:14;3.37;;;2.47;;
22160;SDS011;49035;48.812;11.762;2023-11-19T03:44:40;3.00;;;2.57;;
22160;SDS011;49035;48.812;11.762;2023-11-19T03:47:05;3.97;;;2.23;;
22160;SDS011;49035;48.812;11.762;2023-11-19T03:49:31;2.50;;;2.10;;
22160;SDS011;49035;48.812;11.762;2023-11-19T03:51:57;3.38;;;2.60;;
22160;SDS011;49035;48.812;11.762;2023-11-19T03:54:22;3.58;;;2.72;;
22160;SDS011;49035;48.812;11.762;2023-11-19T03:56:48;3.10;;;2.80;;
22160;SDS011;49035;48.812;11.762;2023-11-19T03:59:14;3.63;;;2.63;;
22160;SDS011;49035;48.812;11.762;2023-11-19T04:01:40;3.75;;;2.90;;
22160;SDS011;49035;48.812;11.762;2023-11-19T04:04:06;8.83;;;3.13;;
22160;SDS011;49035;48.812;11.762;2023-11-19T04:06:32;4.03;;;2.60;;
22160;SDS011;49035;48.812;11.762;2023-11-19T04:08:57;3.88;;;2.65;;
22160;SDS011;49035;48.812;11.762;2023-11-19T04:11:23;3.20;;;2.80;;
22160;SDS011;49035;48.812;11.762;2023-11-19T04:13:48;3.90;;;2.90;;
22160;SDS011;49035;48.812;11.762;2023-11-19T04:16:14;3.37;;;2.83;;
22160;SDS011;49035;48.812;11.762;2023-11-19T04:18:40;3.93;;;3.00;;
22160;SDS011;49035;48.812;11.762;2023-11-19T04:21:06;3.73;;;2.80;;
22160;SDS011;49035;48.812;11.762;2023-11-19T04:23:32;4.10;;;3.20;;
22160;SDS011;49035;48.812;11.762;2023-11-19T04:25:58;4.27;;;3.00;;
22160;SDS011;49035;48.812;11.762;2023-11-19T04:28:26;3.67;;;2.53;;
22160;SDS011;49035;48.812;11.762;2023-11-19T04:30:52;4.03;;;2.63;;
22160;SDS011;49035;48.812;11.762;2023-11-19T04:33:18;5.67;;;3.23;;
22160;SDS011;49035;48.812;11.762;2023-11-19T04:35:43;3.47;;;2.53;;
22160;SDS011;49035;48.812;11.762;2023-11-19T04:38:09;3.97;;;3.27;;
22160;SDS011;49035;48.812;11.762;2023-11-19T04:40:34;5.67;;;4.33;;
22160;SDS011;49035;48.812;11.762;2023-11-19T04:43:00;8.67;;;3.50;;
22160;SDS011;49035;48.812;11.762;2023-11-19T04:45:25;5.20;;;3.50;;
22160;SDS011;49035;48.812;11.762;2023-11-19T04:47:51;5.40;;;3.77;;
22160;SDS011;49035;48.812;11.762;2023-11-19T04:50:16;4.90;;;3.47;;
22160;SDS011;49035;48.812;11.762;2023-11-19T04:52:42;5.97;;;3.80;;
22160;SDS011;49035;48.812;11.762;2023-11-19T04:55:10;5.93;;;3.93;;
22160;SDS011;49035;48.812;11.762;2023-11-19T04:57:37;6.57;;;3.37;;
22160;SDS011;49035;48.812;11.762;2023-11-19T05:00:03;3.40;;;3.00;;
22160;SDS011;49035;48.812;11.762;2023-11-19T05:02:30;3.83;;;2.80;;
22160;SDS011;49035;48.812;11.762;2023-11-19T05:04:55;4.87;;;3.20;;
22160;SDS011;49035;48.812;11.762;2023-11-19T05:07:22;3.07;;;2.70;;
22160;SDS011;49035;48.812;11.762;2023-11-19T05:09:48;3.13;;;2.43;;
22160;SDS011;49035;48.812;11.762;2023-11-19T05:12:13;3.87;;;2.70;;
22160;SDS011;49035;48.812;11.762;2023-11-19T05:14:39;3.37;;;2.60;;
22160;SDS011;49035;48.812;11.762;2023-11-19T05:17:05;3.03;;;2.53;;
22160;SDS011;49035;48.812;11.762;2023-11-19T05:19:30;3.80;;;2.90;;
22160;SDS011;49035;48.812;11.762;2023-11-19T05:21:56;6.45;;;4.68;;
22160;SDS011;49035;48.812;11.762;2023-11-19T05:24:21;5.43;;;4.00;;
22160;SDS011;49035;48.812;11.762;2023-11-19T05:26:47;4.80;;;3.47;;
22160;SDS011;49035;48.812;11.762;2023-11-19T05:29:15;4.37;;;3.47;;
22160;SDS011;49035;48.812;11.762;2023-11-19T05:31:41;5.30;;;3.03;;
22160;SDS011;49035;48.812;11.762;2023-11-19T05:34:07;5.50;;;2.90;;
22160;SDS011;49035;48.812;11.762;2023-11-19T05:36:33;3.45;;;2.83;;
22160;SDS011;49035;48.812;11.762;2023-11-19T05:38:58;3.53;;;2.95;;
22160;SDS011;49035;48.812;11.762;2023-11-19T05:41:24;5.33;;;3.30;;
22160;SDS011;49035;48.812;11.762;2023-11-19T05:43:49;6.18;;;3.13;;
22160;SDS011;49035;48.812;11.762;2023-11-19T05:46:15;4.75;;;3.25;;
22160;SDS011;49035;48.812;11.762;2023-11-19T05:48:41;3.95;;;2.90;;
22160;SDS011;49035;48.812;11.762;2023-11-19T05:51:07;4.47;;;2.97;;
22160;SDS011;49035;48.812;11.762;2023-11-19T05:53:33;3.83;;;3.05;;
22160;SDS011;49035;48.812;11.762;2023-11-19T05:55:59;4.30;;;3.30;;
22160;SDS011;49035;48.812;11.762;2023-11-19T05:58:28;4.38;;;3.10;;
22160;SDS011;49035;48.812;11.762;2023-11-19T06:00:54;3.05;;;2.63;;
22160;SDS011;49035;48.812;11.762;2023-11-19T06:03:21;3.42;;;2.83;;
22160;SDS011;49035;48.812;11.762;2023-11-19T06:05:47;4.70;;;2.83;;
22160;SDS011;49035;48.812;11.762;2023-11-19T06:08:13;6.63;;;4.05;;
22160;SDS011;49035;48.812;11.762;2023-11-19T06:10:40;4.65;;;3.55;;
22160;SDS011;49035;48.812;11.762;2023-11-19T06:13:06;6.15;;;3.83;;
22160;SDS011;49035;48.812;11.762;2023-11-19T06:15:32;5.20;;;3.83;;
22160;SDS011;49035;48.812;11.762;2023-11-19T06:17:58;4.78;;;3.30;;
22160;SDS011;49035;48.812;11.762;2023-11-19T06:20:28;4.60;;;3.33;;
22160;SDS011;49035;48.812;11.762;2023-11-19T06:22:56;5.93;;;3.60;;
22160;SDS011;49035;48.812;11.762;2023-11-19T06:25:22;6.50;;;4.63;;
22160;SDS011;49035;48.812;11.762;2023-11-19T06:27:49;6.53;;;4.27;;
22160;SDS011;49035;48.812;11.762;2023-11-19T06:30:15;4.85;;;4.18;;
22160;SDS011;49035;48.812;11.762;2023-11-19T06:32:40;7.07;;;4.95;;
22160;SDS011;49035;48.812;11.762;2023-11-19T06:35:06;7.00;;;4.80;;
22160;SDS011;49035;48.812;11.762;2023-11-19T06:37:32;6.57;;;4.93;;
22160;SDS011;49035;48.812;11.762;2023-11-19T06:39:58;7.07;;;5.00;;
22160;SDS011;49035;48.812;11.762;2023-11-19T06:42:24;6.22;;;4.70;;
22160;SDS011;49035;48.812;11.762;2023-11-19T06:44:50;6.40;;;4.60;;
22160;SDS011;49035;48.812;11.762;2023-11-19T06:47:16;8.85;;;4.85;;
22160;SDS011;49035;48.812;11.762;2023-11-19T06:49:43;8.55;;;4.75;;
22160;SDS011;49035;48.812;11.762;2023-11-19T06:52:09;6.38;;;4.63;;
22160;SDS011;49035;48.812;11.762;2023-11-19T06:54:35;7.10;;;4.82;;
22160;SDS011;49035;48.812;11.762;2023-11-19T06:57:01;5.65;;;4.30;;
22160;SDS011;49035;48.812;11.762;2023-11-19T06:59:28;9.23;;;5.60;;
22160;SDS011;49035;48.812;11.762;2023-11-19T07:01:54;7.13;;;5.53;;
22160;SDS011;49035;48.812;11.762;2023-11-19T07:04:20;6.30;;;4.70;;
22160;SDS011;49035;48.812;11.762;2023-11-19T07:06:46;7.50;;;5.38;;
22160;SDS011;49035;48.812;11.762;2023-11-19T07:09:13;8.60;;;5.43;;
22160;SDS011;49035;48.812;11.762;2023-11-19T07:11:39;7.68;;;5.32;;
22160;SDS011;49035;48.812;11.762;2023-11-19T07:14:05;6.60;;;4.63;;
22160;SDS011;49035;48.812;11.762;2023-11-19T07:16:32;9.23;;;5.47;;
22160;SDS011;49035;48.812;11.762;2023-11-19T07:18:59;7.68;;;5.28;;
22160;SDS011;49035;48.812;11.762;2023-11-19T07:21:26;6.82;;;5.03;;
22160;SDS011;49035;48.812;11.762;2023-11-19T07:23:53;10.13;;;5.63;;
22160;SDS011;49035;48.812;11.762;2023-11-19T07:26:19;8.82;;;5.43;;
22160;SDS011;49035;48.812;11.762;2023-11-19T07:28:44;9.70;;;5.95;;
22160;SDS011;49035;48.812;11.762;2023-11-19T07:31:10;11.00;;;6.57;;
22160;SDS011;49035;48.812;11.762;2023-11-19T07:33:36;8.55;;;5.82;;
22160;SDS011;49035;48.812;11.762;2023-11-19T07:36:02;8.43;;;5.18;;
22160;SDS011;49035;48.812;11.762;2023-11-19T07:38:27;8.13;;;5.45;;
22160;SDS011;49035;48.812;11.762;2023-11-19T07:40:53;9.13;;;5.45;;
22160;SDS011;49035;48.812;11.762;2023-11-19T07:43:19;10.45;;;6.35;;
22160;SDS011;49035;48.812;11.762;2023-11-19T07:45:44;9.93;;;6.55;;
22160;SDS011;49035;48.812;11.762;2023-11-19T07:48:11;9.70;;;6.10;;
22160;SDS011;49035;48.812;11.762;2023-11-19T07:50:38;7.45;;;5.35;;
22160;SDS011;49035;48.812;11.762;2023-11-19T07:53:06;7.97;;;5.75;;
22160;SDS011;49035;48.812;11.762;2023-11-19T07:55:32;7.68;;;5.32;;
22160;SDS011;49035;48.812;11.762;2023-11-19T07:57:58;10.65;;;5.90;;
22160;SDS011;49035;48.812;11.762;2023-11-19T08:00:24;10.52;;;6.38;;
22160;SDS011;49035;48.812;11.762;2023-11-19T08:02:49;7.45;;;5.28;;
22160;SDS011;49035;48.812;11.762;2023-11-19T08:05:15;6.80;;;4.70;;
22160;SDS011;49035;48.812;11.762;2023-11-19T08:07:40;4.95;;;4.00;;
22160;SDS011;49035;48.812;11.762;2023-11-19T08:10:06;4.65;;;3.45;;
22160;SDS011;49035;48.812;11.762;2023-11-19T08:12:35;3.83;;;3.33;;
22160;SDS011;49035;48.812;11.762;2023-11-19T08:15:02;3.88;;;3.42;;
22160;SDS011;49035;48.812;11.762;2023-11-19T08:17:27;4.60;;;3.47;;
22160;SDS011;49035;48.812;11.762;2023-11-19T08:19:53;4.45;;;3.53;;
22160;SDS011;49035;48.812;11.762;2023-11-19T08:22:19;7.32;;;4.60;;
22160;SDS011;49035;48.812;11.762;2023-11-19T08:24:44;4.82;;;3.60;;
22160;SDS011;49035;48.812;11.762;2023-11-19T08:27:10;4.40;;;3.00;;
22160;SDS011;49035;48.812;11.762;2023-11-19T08:29:35;5.38;;;3.47;;
22160;SDS011;49035;48.812;11.762;2023-11-19T08:32:01;4.88;;;3.30;;
22160;SDS011;49035;48.812;11.762;2023-11-19T08:34:28;4.20;;;3.22;;
22160;SDS011;49035;48.812;11.762;2023-11-19T08:36:54;4.75;;;3.78;;
22160;SDS011;49035;48.812;11.762;2023-11-19T08:39:20;6.03;;;3.25;;
22160;SDS011;49035;48.812;11.762;2023-11-19T08:41:47;4.82;;;3.67;;
22160;SDS011;49035;48.812;11.762;2023-11-19T08:44:13;5.65;;;4.43;;
22160;SDS011;49035;48.812;11.762;2023-11-19T08:46:39;4.10;;;3.35;;
22160;SDS011;49035;48.812;11.762;2023-11-19T08:49:10;4.63;;;3.72;;
22160;SDS011;49035;48.812;11.762;2023-11-19T08:51:36;4.28;;;3.50;;
22160;SDS011;49035;48.812;11.762;2023-11-19T08:54:02;3.55;;;3.13;;
22160;SDS011;49035;48.812;11.762;2023-11-19T08:56:27;3.67;;;3.28;;
22160;SDS011;49035;48.812;11.762;2023-11-19T08:58:57;3.78;;;3.15;;
22160;SDS011;49035;48.812;11.762;2023-11-19T09:01:23;3.03;;;2.72;;
22160;SDS011;49035;48.812;11.762;2023-11-19T09:03:49;5.63;;;3.03;;
22160;SDS011;49035;48.812;11.762;2023-11-19T09:06:15;3.15;;;2.85;;
22160;SDS011;49035;48.812;11.762;2023-11-19T09:08:42;4.15;;;2.85;;
22160;SDS011;49035;48.812;11.762;2023-11-19T09:11:08;2.90;;;2.60;;
22160;SDS011;49035;48.812;11.762;2023-11-19T09:13:34;3.63;;;2.50;;
22160;SDS011;49035;48.812;11.762;2023-11-19T09:16:00;3.33;;;2.33;;
22160;SDS011;49035;48.812;11.762;2023-11-19T09:18:29;4.45;;;2.03;;
22160;SDS011;49035;48.812;11.762;2023-11-19T09:20:55;2.83;;;2.08;;
22160;SDS011;49035;48.812;11.762;2023-11-19T09:23:21;2.55;;;1.70;;
22160;SDS011;49035;48.812;11.762;2023-11-19T09:25:46;2.55;;;2.05;;
22160;SDS011;49035;48.812;11.762;2023-11-19T09:28:12;4.03;;;2.17;;
22160;SDS011;49035;48.812;11.762;2023-11-19T09:30:39;2.75;;;1.85;;
22160;SDS011;49035;48.812;11.762;2023-11-19T09:33:05;3.00;;;2.03;;
22160;SDS011;49035;48.812;11.762;2023-11-19T09:35:30;2.17;;;1.70;;
22160;SDS011;49035;48.812;11.762;2023-11-19T09:37:56;3.30;;;1.70;;
22160;SDS011;49035;48.812;11.762;2023-11-19T09:40:22;1.90;;;1.77;;
22160;SDS011;49035;48.812;11.762;2023-11-19T09:42:47;1.95;;;1.55;;
22160;SDS011;49035;48.812;11.762;2023-11-19T09:45:16;2.10;;;1.60;;
22160;SDS011;49035;48.812;11.762;2023-11-19T09:47:46;1.67;;;1.45;;
22160;SDS011;49035;48.812;11.762;2023-11-19T09:50:14;1.40;;;1.30;;
22160;SDS011;49035;48.812;11.762;2023-11-19T09:52:44;1.77;;;1.55;;
22160;SDS011;49035;48.812;11.762;2023-11-19T09:55:11;1.90;;;1.10;;
22160;SDS011;49035;48.812;11.762;2023-11-19T09:57:40;2.35;;;0.80;;
22160;SDS011;49035;48.812;11.762;2023-11-19T10:00:07;3.78;;;1.10;;
22160;SDS011;49035;48.812;11.762;2023-11-19T10:02:34;0.80;;;0.80;;
22160;SDS011;49035;48.812;11.762;2023-11-19T10:05:02;1.30;;;1.00;;
22160;SDS011;49035;48.812;11.762;2023-11-19T10:07:30;1.55;;;1.10;;
22160;SDS011;49035;48.812;11.762;2023-11-19T10:09:58;1.25;;;1.15;;
22160;SDS011;49035;48.812;11.762;2023-11-19T10:12:26;1.25;;;1.00;;
22160;SDS011;49035;48.812;11.762;2023-11-19T10:14:52;1.73;;;1.15;;
22160;SDS011;49035;48.812;11.762;2023-11-19T10:17:28;3.38;;;1.17;;
22160;SDS011;49035;48.812;11.762;2023-11-19T10:19:57;1.67;;;1.20;;
22160;SDS011;49035;48.812;11.762;2023-11-19T10:22:23;1.42;;;1.33;;
22160;SDS011;49035;48.812;11.762;2023-11-19T10:24:50;1.20;;;1.10;;
22160;SDS011;49035;48.812;11.762;2023-11-19T10:27:15;1.73;;;1.23;;
22160;SDS011;49035;48.812;11.762;2023-11-19T10:29:44;3.30;;;1.20;;
22160;SDS011;49035;48.812;11.762;2023-11-19T10:32:10;1.65;;;1.17;;
22160;SDS011;49035;48.812;11.762;2023-11-19T10:34:38;1.40;;;1.30;;
22160;SDS011;49035;48.812;11.762;2023-11-19T10:37:04;1.05;;;1.05;;
22160;SDS011;49035;48.812;11.762;2023-11-19T10:42:22;2.13;;;1.40;;
22160;SDS011;49035;48.812;11.762;2023-11-19T10:44:48;1.77;;;1.30;;
22160;SDS011;49035;48.812;11.762;2023-11-19T10:47:13;1.17;;;1.08;;
22160;SDS011;49035;48.812;11.762;2023-11-19T10:49:42;1.63;;;1.30;;
22160;SDS011;49035;48.812;11.762;2023-11-19T10:52:08;2.67;;;1.35;;
22160;SDS011;49035;48.812;11.762;2023-11-19T10:54:34;1.50;;;1.23;;
22160;SDS011;49035;48.812;11.762;2023-11-19T10:57:01;1.38;;;1.20;;
22160;SDS011;49035;48.812;11.762;2023-11-19T10:59:28;3.55;;;0.90;;
22160;SDS011;49035;48.812;11.762;2023-11-19T11:01:57;1.30;;;1.20;;
22160;SDS011;49035;48.812;11.762;2023-11-19T11:04:25;3.15;;;1.30;;
22160;SDS011;49035;48.812;11.762;2023-11-19T11:06:56;1.42;;;1.10;;
22160;SDS011;49035;48.812;11.762;2023-11-19T11:09:27;1.65;;;1.42;;
22160;SDS011;49035;48.812;11.762;2023-11-19T11:11:54;1.50;;;1.40;;
22160;SDS011;49035;48.812;11.762;2023-11-19T11:14:20;3.50;;;1.60;;
22160;SDS011;49035;48.812;11.762;2023-11-19T11:16:48;4.80;;;1.63;;
22160;SDS011;49035;48.812;11.762;2023-11-19T11:19:15;1.45;;;1.35;;
22160;SDS011;49035;48.812;11.762;2023-11-19T11:21:42;1.55;;;1.30;;
22160;SDS011;49035;48.812;11.762;2023-11-19T11:24:16;1.30;;;1.15;;
22160;SDS011;49035;48.812;11.762;2023-11-19T11:29:41;1.70;;;1.30;;
22160;SDS011;49035;48.812;11.762;2023-11-19T11:38:04;1.52;;;1.17;;
22160;SDS011;49035;48.812;11.762;2023-11-19T11:40:32;1.20;;;0.93;;
22160;SDS011;49035;48.812;11.762;2023-11-19T11:42:58;1.25;;;1.13;;
22160;SDS011;49035;48.812;11.762;2023-11-19T11:45:36;1.10;;;1.00;;
22160;SDS011;49035;48.812;11.762;2023-11-19T11:50:47;1.73;;;1.10;;
22160;SDS011;49035;48.812;11.762;2023-11-19T11:53:18;1.23;;;1.05;;
22160;SDS011;49035;48.812;11.762;2023-11-19T11:58:13;2.60;;;1.10;;
22160;SDS011;49035;48.812;11.762;2023-11-19T12:00:42;1.58;;;1.05;;
22160;SDS011;49035;48.812;11.762;2023-11-19T12:03:08;1.58;;;0.95;;
22160;SDS011;49035;48.812;11.762;2023-11-19T12:05:40;1.40;;;1.10;;
22160;SDS011;49035;48.812;11.762;2023-11-19T12:08:09;1.23;;;1.00;;
22160;SDS011;49035;48.812;11.762;2023-11-19T12:10:58;1.23;;;1.13;;
22160;SDS011;49035;48.812;11.762;2023-11-19T12:13:23;1.85;;;1.40;;
22160;SDS011;49035;48.812;11.762;2023-11-19T12:18:31;1.40;;;1.30;;
22160;SDS011;49035;48.812;11.762;2023-11-19T12:20:57;0.88;;;0.85;;
22160;SDS011;49035;48.812;11.762;2023-11-19T12:23:27;1.00;;;0.90;;
22160;SDS011;49035;48.812;11.762;2023-11-19T12:25:54;1.92;;;0.90;;
22160;SDS011;49035;48.812;11.762;2023-11-19T12:28:20;1.30;;;0.80;;
22160;SDS011;49035;48.812;11.762;2023-11-19T12:30:46;1.48;;;0.88;;
22160;SDS011;49035;48.812;11.762;2023-11-19T12:33:13;1.50;;;1.00;;
22160;SDS011;49035;48.812;11.762;2023-11-19T12:35:47;1.38;;;1.02;;
22160;SDS011;49035;48.812;11.762;2023-11-19T12:38:19;0.95;;;0.80;;
22160;SDS011;49035;48.812;11.762;2023-11-19T12:40:46;1.00;;;1.00;;
22160;SDS011;49035;48.812;11.762;2023-11-19T12:43:20;1.10;;;0.90;;
22160;SDS011;49035;48.812;11.762;2023-11-19T12:45:47;1.02;;;0.95;;
22160;SDS011;49035;48.812;11.762;2023-11-19T12:48:13;0.95;;;0.85;;
22160;SDS011;49035;48.812;11.762;2023-11-19T12:50:54;1.00;;;0.90;;
22160;SDS011;49035;48.812;11.762;2023-11-19T12:53:25;3.05;;;0.90;;
22160;SDS011;49035;48.812;11.762;2023-11-19T12:55:52;2.38;;;0.90;;
22160;SDS011;49035;48.812;11.762;2023-11-19T12:58:34;0.80;;;0.80;;
22160;SDS011;49035;48.812;11.762;2023-11-19T13:03:31;1.42;;;1.00;;
22160;SDS011;49035;48.812;11.762;2023-11-19T13:08:46;1.25;;;0.95;;
22160;SDS011;49035;48.812;11.762;2023-11-19T13:11:31;1.15;;;0.80;;
22160;SDS011;49035;48.812;11.762;2023-11-19T13:14:04;2.00;;;0.70;;
22160;SDS011;49035;48.812;11.762;2023-11-19T13:16:33;2.35;;;0.90;;
22160;SDS011;49035;48.812;11.762;2023-11-19T13:19:01;0.68;;;0.68;;
22160;SDS011;49035;48.812;11.762;2023-11-19T13:21:27;1.45;;;0.73;;
22160;SDS011;49035;48.812;11.762;2023-11-19T13:23:54;0.98;;;0.90;;
22160;SDS011;49035;48.812;11.762;2023-11-19T13:26:20;0.70;;;0.70;;
22160;SDS011;49035;48.812;11.762;2023-11-19T13:28:46;0.90;;;0.80;;
22160;SDS011;49035;48.812;11.762;2023-11-19T13:31:11;1.08;;;0.70;;
22160;SDS011;49035;48.812;11.762;2023-11-19T13:33:37;0.82;;;0.80;;
22160;SDS011;49035;48.812;11.762;2023-11-19T13:36:03;0.90;;;0.90;;
22160;SDS011;49035;48.812;11.762;2023-11-19T13:38:35;2.05;;;0.70;;
22160;SDS011;49035;48.812;11.762;2023-11-19T13:41:04;0.82;;;0.73;;
22160;SDS011;49035;48.812;11.762;2023-11-19T13:43:30;0.70;;;0.70;;
22160;SDS011;49035;48.812;11.762;2023-11-19T13:45:56;0.80;;;0.80;;
22160;SDS011;49035;48.812;11.762;2023-11-19T13:48:25;0.75;;;0.75;;
22160;SDS011;49035;48.812;11.762;2023-11-19T13:50:52;4.32;;;1.00;;
22160;SDS011;49035;48.812;11.762;2023-11-19T13:53:17;0.82;;;0.77;;
22160;SDS011;49035;48.812;11.762;2023-11-19T13:55:43;1.33;;;0.95;;
22160;SDS011;49035;48.812;11.762;2023-11-19T13:58:09;1.85;;;0.80;;
22160;SDS011;49035;48.812;11.762;2023-11-19T14:00:35;0.80;;;0.80;;
22160;SDS011;49035;48.812;11.762;2023-11-19T14:03:01;1.20;;;1.17;;
22160;SDS011;49035;48.812;11.762;2023-11-19T14:05:27;0.82;;;0.80;;
22160;SDS011;49035;48.812;11.762;2023-11-19T14:07:53;1.27;;;1.15;;
22160;SDS011;49035;48.812;11.762;2023-11-19T14:10:21;1.75;;;0.90;;
22160;SDS011;49035;48.812;11.762;2023-11-19T14:12:47;2.33;;;1.00;;
22160;SDS011;49035;48.812;11.762;2023-11-19T14:15:14;1.00;;;0.80;;
22160;SDS011;49035;48.812;11.762;2023-11-19T14:17:42;2.20;;;1.20;;
22160;SDS011;49035;48.812;11.762;2023-11-19T14:20:08;1.77;;;1.23;;
22160;SDS011;49035;48.812;11.762;2023-11-19T14:22:43;2.13;;;1.48;;
22160;SDS011;49035;48.812;11.762;2023-11-19T14:25:12;3.72;;;1.90;;
22160;SDS011;49035;48.812;11.762;2023-11-19T14:27:38;3.63;;;1.50;;
22160;SDS011;49035;48.812;11.762;2023-11-19T14:30:05;1.90;;;1.48;;
22160;SDS011;49035;48.812;11.762;2023-11-19T14:32:32;1.35;;;1.17;;
22160;SDS011;49035;48.812;11.762;2023-11-19T14:34:58;1.60;;;1.33;;
22160;SDS011;49035;48.812;11.762;2023-11-19T14:37:23;3.50;;;1.77;;
22160;SDS011;49035;48.812;11.762;2023-11-19T14:39:49;2.08;;;1.40;;
22160;SDS011;49035;48.812;11.762;2023-11-19T14:42:15;2.13;;;1.60;;
22160;SDS011;49035;48.812;11.762;2023-11-19T14:44:42;1.77;;;1.35;;
22160;SDS011;49035;48.812;11.762;2023-11-19T14:47:07;1.52;;;1.10;;
22160;SDS011;49035;48.812;11.762;2023-11-19T14:49:36;2.58;;;1.48;;
22160;SDS011;49035;48.812;11.762;2023-11-19T14:52:04;1.52;;;1.20;;
22160;SDS011;49035;48.812;11.762;2023-11-19T14:54:30;2.55;;;1.33;;
22160;SDS011;49035;48.812;11.762;2023-11-19T14:56:56;1.30;;;1.20;;